Time;durP1;ratioP1;P1;durP2;ratioP2;P2;SDS_P1;SDS_P2;PMS_P1;PMS_P2;Temp;Humidity;BMP_temperature;BMP_pressure;BME280_temperature;BME280_humidity;BME280_pressure;Samples;Min_cycle;Max_cycle;Signal;HPM_P1;HPM_P2
2022/10/15 00:01:49;;;;;;;;;2.75;2.00;;;;;29.28;100.00;101431.25;5088217;27;51170;-55
2022/10/15 00:04:34;;;;;;;;;5.00;3.50;;;;;29.29;100.00;101433.00;5100031;27;51048;-54
2022/10/15 00:07:18;;;;;;;;;2.75;2.75;;;;;29.27;100.00;101429.50;5092285;27;51310;-51
2022/10/15 00:10:03;;;;;;;;;2.75;2.00;;;;;29.28;100.00;101429.38;5097970;27;51218;-53
2022/10/15 00:12:48;;;;;;;;;3.75;2.50;;;;;29.27;100.00;101427.59;5089414;27;51215;-54
2022/10/15 00:15:36;;;;;;;;;3.00;3.00;;;;;29.29;100.00;101422.91;5090160;27;51081;-54
2022/10/15 00:18:20;;;;;;;;;5.50;3.25;;;;;29.32;100.00;101416.31;5086524;27;51031;-53
2022/10/15 00:21:11;;;;;;;;;4.75;1.50;;;;;29.33;100.00;101402.56;5098127;27;51156;-51
2022/10/15 00:23:56;;;;;;;;;4.75;2.00;;;;;29.34;100.00;101401.56;5089993;27;51407;-55
2022/10/15 00:26:40;;;;;;;;;5.00;3.25;;;;;29.33;100.00;101391.59;5088191;27;51177;-56
2022/10/15 00:29:25;;;;;;;;;6.25;4.50;;;;;29.33;100.00;101386.09;5089834;27;51206;-52
2022/10/15 00:32:09;;;;;;;;;4.00;3.00;;;;;29.35;100.00;101381.38;5092095;27;51515;-52
2022/10/15 00:34:54;;;;;;;;;6.00;5.00;;;;;29.33;100.00;101372.41;5069882;27;51362;-51
2022/10/15 00:37:38;;;;;;;;;4.00;4.00;;;;;29.32;100.00;101378.84;5091126;27;51445;-50
2022/10/15 00:40:23;;;;;;;;;3.50;3.00;;;;;29.31;100.00;101379.81;5094331;27;51158;-49
2022/10/15 00:43:10;;;;;;;;;3.50;3.50;;;;;29.31;100.00;101376.22;5089373;27;51434;-53
2022/10/15 00:45:54;;;;;;;;;8.00;4.25;;;;;29.31;100.00;101382.56;5074893;27;51500;-54
2022/10/15 00:48:39;;;;;;;;;4.75;4.50;;;;;29.34;100.00;101365.94;5082511;27;51372;-52
2022/10/15 00:51:28;;;;;;;;;7.50;6.00;;;;;29.34;100.00;101354.97;5081474;27;51105;-54
2022/10/15 00:54:14;;;;;;;;;8.25;5.25;;;;;29.36;100.00;101349.34;5090179;27;51156;-51
2022/10/15 00:57:00;;;;;;;;;11.25;7.50;;;;;29.37;100.00;101345.63;5089911;27;51436;-53
2022/10/15 00:59:49;;;;;;;;;6.00;4.00;;;;;29.38;100.00;101341.91;5085488;27;51385;-51
2022/10/15 01:02:34;;;;;;;;;4.50;2.50;;;;;29.38;100.00;101341.91;5097207;27;51292;-55
2022/10/15 01:05:20;;;;;;;;;4.00;2.75;;;;;29.36;100.00;101327.44;5084866;27;51246;-52
2022/10/15 01:08:05;;;;;;;;;5.25;4.00;;;;;29.34;100.00;101333.03;5088975;27;51412;-50
2022/10/15 01:11:31;;;;;;;;;2.75;2.75;;;;;29.34;100.00;101324.81;5087800;27;51275;-51
2022/10/15 01:14:25;;;;;;;;;2.50;1.25;;;;;29.32;100.00;101324.00;5086013;27;51375;-56
2022/10/15 01:17:27;;;;;;;;;2.75;2.50;;;;;29.30;100.00;101315.03;5091019;27;51018;-50
2022/10/15 01:20:26;;;;;;;;;6.75;2.50;;;;;29.28;100.00;101307.91;5071881;27;51491;-53
2022/10/15 01:23:34;;;;;;;;;9.25;5.00;;;;;29.27;100.00;101312.50;5083092;27;51432;-55
2022/10/15 01:26:25;;;;;;;;;5.00;5.00;;;;;29.22;100.00;101315.59;5073485;27;51196;-53
2022/10/15 01:29:33;;;;;;;;;4.00;4.00;;;;;29.21;100.00;101316.56;5083128;27;51204;-50
2022/10/15 01:32:28;;;;;;;;;4.00;3.00;;;;;29.20;100.00;101312.09;5071603;27;51088;-54
2022/10/15 01:35:13;;;;;;;;;2.75;2.75;;;;;29.28;100.00;101321.63;5090391;27;51594;-53
2022/10/15 01:38:25;;;;;;;;;5.50;3.75;;;;;29.28;100.00;101319.75;5084121;27;51371;-54
2022/10/15 01:41:24;;;;;;;;;6.00;4.00;;;;;29.25;100.00;101316.34;5088835;27;51340;-52
2022/10/15 01:44:20;;;;;;;;;4.75;3.25;;;;;29.23;100.00;101308.25;5044171;28;52126;-49
2022/10/15 01:47:08;;;;;;;;;2.75;2.75;;;;;29.25;100.00;101310.88;5049178;28;51011;-51
2022/10/15 01:49:53;;;;;;;;;5.75;2.00;;;;;29.25;100.00;101306.28;5040160;28;51373;-50
2022/10/15 01:52:39;;;;;;;;;5.00;3.25;;;;;29.24;100.00;101296.31;5039710;28;51048;-49
2022/10/15 01:55:25;;;;;;;;;3.00;2.00;;;;;29.26;100.00;101305.28;5051925;28;51114;-52
2022/10/15 01:58:11;;;;;;;;;4.00;3.00;;;;;29.22;100.00;101301.03;5041986;28;51151;-55
2022/10/15 02:00:57;;;;;;;;;3.00;3.00;;;;;29.26;100.00;101299.78;5046301;28;51359;-49
2022/10/15 02:03:52;;;;;;;;;5.00;5.00;;;;;29.29;100.00;101295.97;5044623;28;51184;-52
2022/10/15 02:06:41;;;;;;;;;7.00;4.00;;;;;29.33;100.00;101308.47;5040486;28;51314;-55
2022/10/15 02:09:37;;;;;;;;;4.25;2.00;;;;;29.35;100.00;101299.16;5043398;28;51181;-53
2022/10/15 02:13:02;;;;;;;;;7.50;3.75;;;;;29.39;100.00;101308.03;5048711;28;51352;-51
2022/10/15 02:16:07;;;;;;;;;10.75;8.00;;;;;29.42;100.00;101312.41;5045978;28;51415;-50
2022/10/15 02:19:10;;;;;;;;;10.75;4.50;;;;;29.41;100.00;101303.31;5044066;28;51593;-53
2022/10/15 02:22:31;;;;;;;;;5.00;4.00;;;;;29.48;100.00;101306.44;5041712;28;51126;-52
2022/10/15 02:25:21;;;;;;;;;4.25;3.75;;;;;29.47;100.00;101293.75;5040516;28;51424;-51
2022/10/15 02:28:08;;;;;;;;;11.00;7.00;;;;;29.50;100.00;101305.34;5041567;28;51287;-53
2022/10/15 02:30:55;;;;;;;;;8.25;7.25;;;;;29.42;100.00;101287.72;5040192;28;51221;-50
2022/10/15 02:33:40;;;;;;;;;11.00;6.75;;;;;29.47;100.00;101297.34;5041264;28;51111;-49
2022/10/15 02:36:24;;;;;;;;;11.00;9.25;;;;;29.44;100.00;101305.81;5039345;28;51098;-52
2022/10/15 02:39:11;;;;;;;;;10.00;7.00;;;;;29.42;100.00;101305.03;5043779;28;51162;-49
2022/10/15 02:41:56;;;;;;;;;10.75;8.00;;;;;29.40;100.00;101304.31;5045957;27;51988;-51
2022/10/15 02:44:41;;;;;;;;;10.25;8.00;;;;;29.32;100.00;101287.50;5066090;27;51093;-53
2022/10/15 02:47:25;;;;;;;;;7.50;7.50;;;;;29.33;100.00;101297.50;5078439;27;51130;-52
2022/10/15 02:50:10;;;;;;;;;11.00;8.25;;;;;29.31;100.00;101296.72;5082540;27;51022;-52
2022/10/15 02:52:55;;;;;;;;;11.75;9.50;;;;;29.28;100.00;101288.72;5082811;27;51550;-52
2022/10/15 02:55:40;;;;;;;;;8.75;6.75;;;;;29.28;100.00;101303.28;5085044;27;51195;-49
2022/10/15 02:58:24;;;;;;;;;9.75;8.75;;;;;29.26;100.00;101299.78;5097988;27;51145;-50
2022/10/15 03:01:09;;;;;;;;;8.50;7.75;;;;;29.13;100.00;101283.38;5082075;27;51431;-57
2022/10/15 03:03:54;;;;;;;;;7.50;6.50;;;;;29.23;100.00;101303.63;5086350;27;51084;-55
2022/10/15 03:06:39;;;;;;;;;7.25;7.25;;;;;29.17;100.00;101297.72;5093715;27;51338;-55
2022/10/15 03:09:24;;;;;;;;;7.50;6.00;;;;;29.17;100.00;101295.00;5095447;27;51299;-52
2022/10/15 03:12:08;;;;;;;;;5.00;4.00;;;;;29.10;100.00;101286.38;5079948;27;51221;-52
2022/10/15 03:14:53;;;;;;;;;9.25;9.00;;;;;29.09;100.00;101281.00;5084346;27;51185;-50
2022/10/15 03:17:38;;;;;;;;;11.75;8.50;;;;;29.02;100.00;101266.88;5080813;27;51464;-51
2022/10/15 03:20:22;;;;;;;;;10.50;6.75;;;;;29.04;100.00;101279.47;5079362;27;51281;-51
2022/10/15 03:23:07;;;;;;;;;11.00;10.00;;;;;29.04;100.00;101278.59;5080104;27;51464;-52
2022/10/15 03:25:53;;;;;;;;;8.50;8.50;;;;;28.99;100.00;101281.66;5080533;27;51125;-53
2022/10/15 03:28:37;;;;;;;;;10.00;8.50;;;;;29.02;100.00;101289.69;5081136;27;51058;-54
2022/10/15 03:31:21;;;;;;;;;9.25;8.00;;;;;29.02;100.00;101286.03;5097651;27;51097;-49
2022/10/15 03:34:06;;;;;;;;;10.25;8.50;;;;;28.93;100.00;101282.13;5100104;27;51421;-52
2022/10/15 03:36:50;;;;;;;;;11.50;9.75;;;;;28.94;100.00;101275.66;5100219;27;51141;-51
2022/10/15 03:39:35;;;;;;;;;12.75;12.00;;;;;28.91;100.00;101271.25;5100626;27;51155;-54
2022/10/15 03:42:19;;;;;;;;;7.00;7.00;;;;;28.93;100.00;101279.41;5082705;27;51177;-50
2022/10/15 03:45:04;;;;;;;;;8.25;6.25;;;;;28.92;100.00;101286.72;5079623;27;51192;-52
2022/10/15 03:47:48;;;;;;;;;8.00;8.00;;;;;28.96;100.00;101306.53;5084053;27;51294;-53
2022/10/15 03:50:33;;;;;;;;;9.00;7.00;;;;;28.96;100.00;101295.59;5087817;27;51145;-49
2022/10/15 03:53:17;;;;;;;;;10.00;8.00;;;;;28.95;100.00;101290.22;5093109;27;52190;-50
2022/10/15 03:56:05;;;;;;;;;9.00;7.50;;;;;28.95;100.00;101304.78;5079338;27;51416;-52
2022/10/15 03:58:50;;;;;;;;;7.00;6.00;;;;;28.97;100.00;101312.91;5079797;27;51757;-53
2022/10/15 04:01:34;;;;;;;;;15.25;8.75;;;;;28.83;100.00;101284.66;5082232;27;51075;-56
2022/10/15 04:04:18;;;;;;;;;6.25;6.25;;;;;28.95;100.00;101313.00;5084520;27;51094;-51
2022/10/15 04:07:03;;;;;;;;;7.50;7.50;;;;;28.95;100.00;101314.88;5080364;27;51451;-51
2022/10/15 04:09:47;;;;;;;;;9.00;8.75;;;;;28.97;100.00;101319.25;5087011;27;51199;-50
2022/10/15 04:12:32;;;;;;;;;11.25;8.50;;;;;28.93;100.00;101323.22;5081503;27;51350;-53
2022/10/15 04:15:16;;;;;;;;;7.00;7.00;;;;;28.94;100.00;101322.25;5092160;27;51184;-50
2022/10/15 04:18:01;;;;;;;;;12.75;9.50;;;;;28.94;100.00;101324.06;5081306;27;51221;-54
2022/10/15 04:20:46;;;;;;;;;13.25;8.75;;;;;28.92;100.00;101322.31;5080897;27;51416;-53
2022/10/15 04:23:31;;;;;;;;;13.25;9.00;;;;;28.90;100.00;101323.44;5070560;27;51243;-52
2022/10/15 04:26:15;;;;;;;;;9.75;7.50;;;;;28.81;100.00;101319.47;5087624;27;51089;-53
2022/10/15 04:29:00;;;;;;;;;11.75;8.75;;;;;28.85;100.00;101333.81;5086478;27;51110;-53
2022/10/15 04:31:44;;;;;;;;;13.25;10.00;;;;;28.82;100.00;101332.19;5079071;27;51100;-55
2022/10/15 04:34:29;;;;;;;;;10.00;9.75;;;;;28.80;100.00;101330.56;5083072;27;51076;-50
2022/10/15 04:37:14;;;;;;;;;11.25;10.00;;;;;28.78;100.00;101341.63;5084186;27;51579;-53
2022/10/15 04:39:58;;;;;;;;;10.50;10.50;;;;;28.76;100.00;101341.72;5080299;27;51085;-53
2022/10/15 04:42:43;;;;;;;;;12.75;9.75;;;;;28.76;100.00;101336.25;5085224;27;51195;-54
2022/10/15 04:45:27;;;;;;;;;13.00;12.00;;;;;28.69;100.00;101334.91;5092942;27;51391;-56
2022/10/15 04:48:11;;;;;;;;;17.00;13.00;;;;;28.73;100.00;101338.34;5085360;27;51093;-54
2022/10/15 04:51:05;;;;;;;;;16.75;14.00;;;;;28.69;100.00;101334.00;5083380;27;51404;-51
2022/10/15 04:53:49;;;;;;;;;17.25;14.00;;;;;28.72;100.00;101345.69;5087678;27;51099;-54
2022/10/15 04:56:34;;;;;;;;;14.50;12.75;;;;;28.68;100.00;101344.09;5084338;27;51400;-49
2022/10/15 04:59:19;;;;;;;;;15.50;13.75;;;;;28.65;100.00;101340.72;5084644;27;51061;-55
2022/10/15 05:02:03;;;;;;;;;16.50;13.25;;;;;28.65;100.00;101355.25;5082967;27;51467;-54
2022/10/15 05:04:48;;;;;;;;;14.50;14.00;;;;;28.64;100.00;101349.91;5083076;27;51177;-52
2022/10/15 05:07:32;;;;;;;;;14.00;12.75;;;;;28.48;100.00;101317.25;5083350;27;51152;-55
2022/10/15 05:10:17;;;;;;;;;16.00;14.50;;;;;28.61;100.00;101346.41;5083803;27;51408;-53
2022/10/15 05:13:02;;;;;;;;;19.50;14.50;;;;;28.60;100.00;101352.00;5087939;27;52576;-53
2022/10/15 05:15:46;;;;;;;;;18.25;13.00;;;;;28.56;100.00;101342.22;5081689;27;51096;-48
2022/10/15 05:18:31;;;;;;;;;17.50;13.25;;;;;28.52;100.00;101343.44;5085596;27;51078;-53
2022/10/15 05:21:17;;;;;;;;;35.00;21.75;;;;;28.51;100.00;101360.84;5098508;27;51399;-55
2022/10/15 05:24:01;;;;;;;;;19.50;13.75;;;;;28.47;100.00;101354.69;5068112;27;51122;-53
2022/10/15 05:26:45;;;;;;;;;17.75;13.75;;;;;28.45;100.00;101357.56;5097778;27;51141;-50
2022/10/15 05:29:30;;;;;;;;;14.75;13.50;;;;;28.44;100.00;101363.13;5084005;27;51130;-56
2022/10/15 05:32:14;;;;;;;;;6.50;3.00;;;;;28.45;100.00;101359.41;5084112;27;52356;-54
2022/10/15 05:34:59;;;;;;;;;17.25;16.25;;;;;28.37;100.00;101348.09;5081039;27;51192;-53
2022/10/15 05:37:43;;;;;;;;;21.75;19.00;;;;;28.42;100.00;101352.28;5098597;27;51926;-52
2022/10/15 05:40:28;;;;;;;;;22.50;20.75;;;;;28.44;100.00;101365.88;5085050;27;51168;-55
2022/10/15 05:43:13;;;;;;;;;26.75;23.25;;;;;28.43;100.00;101373.19;5084626;27;51184;-53
2022/10/15 05:45:57;;;;;;;;;76.75;63.25;;;;;28.44;100.00;101372.22;5081740;27;51256;-54
2022/10/15 05:48:42;;;;;;;;;26.00;22.25;;;;;28.45;100.00;101375.84;5083065;27;51250;-54
2022/10/15 05:51:27;;;;;;;;;18.75;16.25;;;;;28.47;100.00;101373.84;5092788;27;51533;-50
2022/10/15 05:54:12;;;;;;;;;18.75;17.00;;;;;28.49;100.00;101377.38;5085116;27;51156;-55
2022/10/15 05:56:57;;;;;;;;;16.50;13.50;;;;;28.48;100.00;101378.34;5081628;27;51089;-51
2022/10/15 05:59:41;;;;;;;;;18.75;13.50;;;;;28.45;100.00;101373.97;5088484;27;51303;-53
2022/10/15 06:02:26;;;;;;;;;15.50;14.00;;;;;28.51;100.00;101385.50;5081654;27;51120;-56
2022/10/15 06:05:10;;;;;;;;;17.50;15.25;;;;;28.46;100.00;101377.59;5081290;27;51187;-54
2022/10/15 06:07:55;;;;;;;;;16.25;13.50;;;;;28.54;100.00;101390.72;5082250;27;51125;-53
2022/10/15 06:10:40;;;;;;;;;16.50;15.00;;;;;28.58;100.00;101392.28;5086500;27;51058;-53
2022/10/15 06:13:25;;;;;;;;;22.25;15.25;;;;;28.61;100.00;101397.56;5082563;27;51172;-56
2022/10/15 06:16:11;;;;;;;;;31.00;25.75;;;;;28.66;100.00;101402.72;5085913;27;51124;-53
2022/10/15 06:18:55;;;;;;;;;35.25;30.00;;;;;28.71;100.00;101397.75;5088400;27;51148;-53
2022/10/15 06:21:40;;;;;;;;;46.75;40.00;;;;;28.72;100.00;101396.81;5084527;27;51185;-53
2022/10/15 06:24:25;;;;;;;;;40.50;35.75;;;;;28.78;100.00;101401.88;5095461;27;51553;-56
2022/10/15 06:27:10;;;;;;;;;47.00;38.75;;;;;28.84;100.00;101409.66;5082034;27;51547;-55
2022/10/15 06:29:55;;;;;;;;;33.25;31.75;;;;;28.90;100.00;101416.56;5091700;27;51164;-51
2022/10/15 06:32:40;;;;;;;;;39.25;34.00;;;;;28.97;100.00;101411.53;5092135;27;51350;-51
2022/10/15 06:35:29;;;;;;;;;58.00;46.00;;;;;29.07;100.00;101423.59;5066265;27;51465;-53
2022/10/15 06:38:13;;;;;;;;;26.50;24.75;;;;;29.21;100.00;101420.72;5084990;27;51149;-55
2022/10/15 06:40:58;;;;;;;;;39.50;32.00;;;;;29.38;100.00;101421.41;5080662;27;51190;-55
2022/10/15 06:43:44;;;;;;;;;37.25;33.00;;;;;29.55;100.00;101419.28;5089234;27;51311;-52
2022/10/15 06:46:29;;;;;;;;;44.00;35.50;;;;;29.79;100.00;101416.59;5091815;27;51289;-53
2022/10/15 06:49:13;;;;;;;;;46.00;38.50;;;;;30.04;100.00;101415.66;5083779;27;51526;-54
2022/10/15 06:51:58;;;;;;;;;43.50;35.50;;;;;30.29;100.00;101416.50;5080234;27;51583;-53
2022/10/15 06:54:43;;;;;;;;;41.25;32.00;;;;;30.32;100.00;101416.28;5092998;27;51081;-51
2022/10/15 06:57:28;;;;;;;;;62.00;48.00;;;;;30.36;100.00;101431.53;5080494;27;51121;-54
2022/10/15 07:00:13;;;;;;;;;54.50;42.75;;;;;30.32;100.00;101408.03;5081541;27;51477;-55
2022/10/15 07:03:05;;;;;;;;;77.75;67.75;;;;;30.44;100.00;101431.81;5083976;27;51631;-51
2022/10/15 07:05:50;;;;;;;;;46.50;37.25;;;;;30.55;100.00;101427.38;5087420;27;51662;-53
2022/10/15 07:08:36;;;;;;;;;38.75;28.75;;;;;30.69;100.00;101432.66;5080892;27;51137;-46
2022/10/15 07:11:20;;;;;;;;;33.50;30.00;;;;;30.82;100.00;101431.69;5088922;27;51120;-46
2022/10/15 07:14:05;;;;;;;;;30.25;24.75;;;;;30.95;100.00;101427.00;5099770;27;51060;-44
2022/10/15 07:16:49;;;;;;;;;32.25;29.00;;;;;31.09;100.00;101436.00;5079917;27;51157;-46
2022/10/15 07:19:34;;;;;;;;;27.50;25.75;;;;;31.24;100.00;101434.78;5079333;27;51084;-48
2022/10/15 07:22:18;;;;;;;;;31.25;27.00;;;;;31.40;100.00;101436.31;5064755;27;50995;-47
2022/10/15 07:25:03;;;;;;;;;24.50;21.50;;;;;31.61;100.00;101426.31;5079213;27;51232;-47
2022/10/15 07:27:47;;;;;;;;;26.75;25.00;;;;;32.09;100.00;101425.09;5081304;27;51077;-44
2022/10/15 07:30:32;;;;;;;;;51.00;41.75;;;;;33.07;100.00;101422.28;5094627;27;51155;-44
2022/10/15 07:33:17;;;;;;;;;31.50;23.75;;;;;34.38;100.00;101408.59;5099782;27;51316;-42
2022/10/15 07:36:07;;;;;;;;;40.25;34.50;;;;;35.89;100.00;101404.06;5100238;27;51171;-43
2022/10/15 07:38:51;;;;;;;;;30.75;25.50;;;;;37.88;100.00;101391.66;5100084;27;51449;-45
2022/10/15 07:41:36;;;;;;;;;18.25;16.50;;;;;38.81;100.00;101386.84;5085711;27;51264;-45
2022/10/15 07:44:20;;;;;;;;;45.25;36.00;;;;;39.54;100.00;101390.44;5076340;27;51564;-46
2022/10/15 07:47:06;;;;;;;;;20.25;16.75;;;;;40.08;100.00;101377.59;5100316;27;51228;-44
2022/10/15 07:49:51;;;;;;;;;21.50;17.50;;;;;41.05;100.00;101384.44;5096763;27;51570;-44
2022/10/15 07:52:36;;;;;;;;;19.25;17.25;;;;;42.38;100.00;101377.88;5099752;27;51102;-44
2022/10/15 07:55:20;;;;;;;;;28.25;25.00;;;;;43.86;100.00;101373.16;5100034;27;51183;-48
2022/10/15 07:58:07;;;;;;;;;20.00;16.00;;;;;44.96;100.00;101366.31;5099545;27;51115;-45
2022/10/15 08:00:51;;;;;;;;;18.00;14.50;;;;;46.09;100.00;101373.38;5097877;27;51104;-45
2022/10/15 08:03:36;;;;;;;;;15.75;14.00;;;;;46.83;100.00;101366.25;5080801;27;51186;-46
2022/10/15 08:06:21;;;;;;;;;15.00;12.00;;;;;47.46;100.00;101362.25;5079514;27;51361;-47
2022/10/15 08:09:06;;;;;;;;;15.25;12.25;;;;;47.82;100.00;101367.19;5089289;27;51395;-47
2022/10/15 08:11:51;;;;;;;;;12.00;11.00;;;;;47.01;100.00;101362.59;5093619;27;51160;-48
2022/10/15 08:14:36;;;;;;;;;15.25;12.75;;;;;45.99;100.00;101364.56;5079815;27;51365;-48
2022/10/15 08:17:21;;;;;;;;;15.25;14.25;;;;;45.09;100.00;101366.25;5086360;27;51372;-46
2022/10/15 08:20:06;;;;;;;;;13.25;13.00;;;;;44.46;100.00;101363.97;5103493;27;51295;-47
2022/10/15 08:22:50;;;;;;;;;19.25;13.00;;;;;43.95;100.00;101374.69;5085350;27;51131;-45
2022/10/15 08:25:35;;;;;;;;;14.50;11.00;;;;;43.26;100.00;101371.84;5083065;27;51330;-47
2022/10/15 08:28:19;;;;;;;;;10.25;8.75;;;;;42.47;100.00;101373.00;5084809;27;51386;-46
2022/10/15 08:31:05;;;;;;;;;11.25;7.50;;;;;41.81;100.00;101375.75;5087470;27;51252;-45
2022/10/15 08:33:49;;;;;;;;;10.75;10.50;;;;;41.29;100.00;101379.59;5083764;27;51518;-46
2022/10/15 08:36:34;;;;;;;;;16.00;8.50;;;;;40.72;100.00;101376.41;5083926;27;51179;-43
2022/10/15 08:39:18;;;;;;;;;8.00;8.00;;;;;40.28;100.00;101375.19;5102045;27;51475;-45
2022/10/15 08:42:21;;;;;;;;;11.75;10.25;;;;;39.90;100.00;101372.31;5070338;27;51185;-46
2022/10/15 08:45:37;;;;;;;;;11.75;10.25;;;;;39.43;100.00;101377.78;5086407;27;51238;-45
2022/10/15 08:48:33;;;;;;;;;9.25;9.25;;;;;39.18;100.00;101377.88;5096345;27;51381;-46
2022/10/15 08:51:24;;;;;;;;;18.50;15.75;;;;;39.02;100.00;101386.25;5084805;27;51076;-47
2022/10/15 08:54:15;;;;;;;;;9.75;9.00;;;;;38.94;100.00;101387.16;5078041;27;51448;-46
2022/10/15 08:57:20;;;;;;;;;13.00;8.25;;;;;38.88;100.00;101402.66;5071522;27;51114;-46
2022/10/15 09:00:20;;;;;;;;;11.50;11.50;;;;;38.77;100.00;101391.88;5073438;27;51159;-45
2022/10/15 09:03:13;;;;;;;;;10.50;10.50;;;;;38.43;100.00;101371.56;5071354;27;51164;-47
2022/10/15 09:06:16;;;;;;;;;12.75;11.25;;;;;38.37;100.00;101404.72;5084966;27;51422;-45
2022/10/15 09:09:30;;;;;;;;;15.25;12.75;;;;;38.10;100.00;101407.63;5090466;27;51287;-45
2022/10/15 09:12:36;;;;;;;;;16.50;13.00;;;;;37.83;100.00;101415.19;5089972;27;51523;-45
2022/10/15 09:15:22;;;;;;;;;15.00;12.50;;;;;37.47;100.00;101418.19;5082327;27;51389;-45
2022/10/15 09:18:17;;;;;;;;;8.75;8.75;;;;;37.09;100.00;101427.88;5089287;27;51150;-46
2022/10/15 09:21:04;;;;;;;;;9.00;7.75;;;;;36.90;100.00;101414.06;5066063;27;51154;-46
2022/10/15 09:23:49;;;;;;;;;10.25;8.25;;;;;36.99;100.00;101420.50;5087179;27;51102;-47
2022/10/15 09:27:06;;;;;;;;;8.50;7.00;;;;;37.11;100.00;101414.69;5070303;27;51367;-48
2022/10/15 09:30:05;;;;;;;;;11.75;10.00;;;;;37.19;100.00;101415.59;5088499;27;51200;-44
2022/10/15 09:33:14;;;;;;;;;8.50;8.00;;;;;37.42;100.00;101417.84;5097328;27;51073;-46
2022/10/15 09:36:29;;;;;;;;;7.00;7.00;;;;;37.62;100.00;101423.13;5099446;27;51623;-47
2022/10/15 09:39:36;;;;;;;;;11.50;10.50;;;;;37.68;100.00;101408.53;5071614;27;51234;-48
2022/10/15 09:42:29;;;;;;;;;8.00;8.00;;;;;37.90;100.00;101404.31;5068578;27;51258;-45
2022/10/15 09:45:14;;;;;;;;;11.00;7.50;;;;;38.01;100.00;101400.31;5091344;27;51136;-46
2022/10/15 09:48:00;;;;;;;;;10.50;8.50;;;;;37.97;100.00;101399.81;5087108;27;52030;-48
2022/10/15 09:51:06;;;;;;;;;13.50;11.25;;;;;37.81;100.00;101392.28;5080537;27;51221;-48
2022/10/15 09:54:02;;;;;;;;;7.75;6.50;;;;;37.59;100.00;101387.34;5072438;27;51103;-47
2022/10/15 09:56:52;;;;;;;;;10.50;6.25;;;;;37.40;100.00;101383.81;5087250;27;51433;-46
2022/10/15 09:59:37;;;;;;;;;12.00;7.75;;;;;37.26;100.00;101382.53;5084797;27;51366;-47
2022/10/15 10:02:24;;;;;;;;;7.00;7.00;;;;;37.17;100.00;101384.38;5092036;27;51296;-48
2022/10/15 10:05:28;;;;;;;;;6.25;6.00;;;;;37.14;100.00;101376.41;5080889;27;51710;-47
2022/10/15 10:08:20;;;;;;;;;3.25;2.50;;;;;37.11;100.00;101379.50;5080871;27;51162;-46
2022/10/15 10:11:08;;;;;;;;;7.50;5.00;;;;;37.11;100.00;101371.19;5080419;27;51174;-46
2022/10/15 10:14:00;;;;;;;;;9.25;6.75;;;;;37.01;100.00;101364.88;5080327;27;51230;-50
2022/10/15 10:17:16;;;;;;;;;6.75;4.75;;;;;37.20;100.00;101364.63;5081980;27;51370;-46
2022/10/15 10:20:10;;;;;;;;;7.00;5.50;;;;;37.55;100.00;101356.28;5081105;27;51412;-45
2022/10/15 10:23:00;;;;;;;;;12.75;5.75;;;;;37.79;100.00;101337.97;5080894;27;51030;-48
2022/10/15 10:25:44;;;;;;;;;6.50;5.00;;;;;37.98;100.00;101342.38;5072906;27;51521;-45
2022/10/15 10:28:43;;;;;;;;;9.00;6.50;;;;;38.03;100.00;101328.81;5087828;27;51584;-47
2022/10/15 10:31:31;;;;;;;;;7.00;7.00;;;;;37.86;100.00;101324.25;5062532;27;51329;-46
2022/10/15 10:34:36;;;;;;;;;12.00;9.00;;;;;37.67;100.00;101312.44;5058645;27;51614;-44
2022/10/15 10:37:20;;;;;;;;;10.00;8.00;;;;;37.51;100.00;101311.34;5082625;27;51133;-46
2022/10/15 10:40:48;;;;;;;;;7.00;6.50;;;;;37.33;100.00;101300.34;5079475;27;51153;-46
2022/10/15 10:43:34;;;;;;;;;10.75;7.75;;;;;37.23;100.00;101313.47;5077770;27;51483;-46
2022/10/15 10:46:24;;;;;;;;;10.00;6.25;;;;;37.08;100.00;101287.44;5086206;27;51146;-47
2022/10/15 10:49:08;;;;;;;;;6.00;6.00;;;;;36.96;100.00;101306.25;5086917;27;51154;-45
2022/10/15 10:51:53;;;;;;;;;12.00;9.00;;;;;36.77;100.00;101299.03;5080329;27;51357;-48
2022/10/15 10:54:40;;;;;;;;;9.00;7.00;;;;;36.54;100.00;101294.91;5098444;27;51117;-45
2022/10/15 10:57:32;;;;;;;;;10.00;9.25;;;;;36.39;100.00;101288.22;5085932;27;51355;-46
2022/10/15 11:00:20;;;;;;;;;9.00;7.25;;;;;36.21;100.00;101297.41;5071188;27;51162;-47
2022/10/15 11:03:08;;;;;;;;;7.00;5.25;;;;;36.08;100.00;101288.66;5079319;27;51464;-46
2022/10/15 11:06:04;;;;;;;;;9.25;7.00;;;;;36.14;100.00;101286.09;5072063;27;51131;-46
2022/10/15 11:09:11;;;;;;;;;12.00;9.50;;;;;36.18;100.00;101280.25;5080981;27;51159;-47
2022/10/15 11:12:20;;;;;;;;;11.50;9.25;;;;;36.07;100.00;101267.53;5064055;27;51469;-46
2022/10/15 11:15:24;;;;;;;;;13.00;8.75;;;;;36.02;100.00;101279.09;5083843;27;51199;-46
2022/10/15 11:18:50;;;;;;;;;7.75;7.75;;;;;35.99;100.00;101271.09;5069886;27;51378;-46
2022/10/15 11:21:59;;;;;;;;;11.75;9.50;;;;;36.06;100.00;101263.03;5072537;27;51064;-46
2022/10/15 11:24:56;;;;;;;;;6.75;6.50;;;;;36.14;100.00;101257.53;5080145;27;51468;-47
2022/10/15 11:28:09;;;;;;;;;10.25;10.25;;;;;36.21;100.00;101247.53;5079726;27;51331;-46
2022/10/15 11:31:17;;;;;;;;;11.75;10.50;;;;;36.14;100.00;101252.00;5071461;27;51231;-46
2022/10/15 11:34:24;;;;;;;;;13.00;12.25;;;;;36.14;100.00;101255.63;5083509;27;51126;-46
2022/10/15 11:37:38;;;;;;;;;12.00;11.75;;;;;36.22;100.00;101242.91;5079981;27;51127;-48
2022/10/15 11:41:20;;;;;;;;;11.50;11.25;;;;;36.20;100.00;101237.50;5097647;27;51060;-46
2022/10/15 11:44:33;;;;;;;;;14.00;13.00;;;;;36.14;100.00;101233.47;5014554;28;51226;-45
2022/10/15 11:47:28;;;;;;;;;17.50;12.75;;;;;36.12;100.00;101220.81;5009398;27;51599;-46
2022/10/15 11:50:33;;;;;;;;;18.25;14.75;;;;;36.18;100.00;101220.19;5070730;27;51601;-45
2022/10/15 11:53:24;;;;;;;;;18.25;16.50;;;;;36.07;100.00;101213.00;5065039;27;51593;-46
2022/10/15 11:56:22;;;;;;;;;17.50;15.50;;;;;36.04;100.00;101210.56;5069161;27;51190;-45
2022/10/15 11:59:32;;;;;;;;;18.50;16.00;;;;;36.01;100.00;101202.59;5077716;27;51543;-44
2022/10/15 12:02:29;;;;;;;;;22.00;20.25;;;;;35.90;100.00;101195.38;5082998;27;51183;-46
2022/10/15 12:05:20;;;;;;;;;20.50;15.25;;;;;35.83;100.00;101180.44;5070295;27;51561;-48
2022/10/15 12:08:06;;;;;;;;;20.75;19.25;;;;;35.72;100.00;101175.16;5073945;27;51189;-45
2022/10/15 12:11:14;;;;;;;;;21.25;18.25;;;;;35.56;100.00;101181.44;5081927;27;51155;-48
2022/10/15 12:14:12;;;;;;;;;19.75;18.50;;;;;35.32;100.00;101169.06;5072907;27;51073;-45
2022/10/15 12:16:59;;;;;;;;;22.25;18.75;;;;;35.25;100.00;101168.81;5065556;27;51164;-45
2022/10/15 12:19:58;;;;;;;;;27.75;26.75;;;;;35.20;100.00;101165.66;5080558;27;51261;-46
2022/10/15 12:22:46;;;;;;;;;17.00;17.00;;;;;35.20;100.00;101168.44;5062537;27;51295;-47
2022/10/15 12:25:33;;;;;;;;;15.00;11.25;;;;;35.25;100.00;101154.13;5062308;28;51531;-45
2022/10/15 12:28:23;;;;;;;;;37.75;31.00;;;;;35.24;100.00;101150.47;5062123;28;51153;-45
2022/10/15 12:31:08;;;;;;;;;23.25;23.25;;;;;35.25;100.00;101155.00;5064624;27;51566;-46
2022/10/15 12:33:54;;;;;;;;;22.00;19.25;;;;;35.26;100.00;101156.72;5065237;27;51474;-46
2022/10/15 12:36:38;;;;;;;;;26.75;24.00;;;;;35.35;100.00;101146.63;5068940;27;51143;-46
2022/10/15 12:39:24;;;;;;;;;50.00;42.00;;;;;35.45;100.00;101143.81;5061556;28;51403;-45
2022/10/15 12:42:28;;;;;;;;;35.25;29.75;;;;;35.51;100.00;101141.25;5065422;27;51095;-44
2022/10/15 12:45:25;;;;;;;;;25.00;20.25;;;;;35.56;100.00;101148.22;5082473;27;51340;-44
2022/10/15 12:48:15;;;;;;;;;27.50;24.00;;;;;35.60;100.00;101139.44;5081644;27;51104;-48
2022/10/15 12:51:21;;;;;;;;;17.00;15.75;;;;;35.60;100.00;101133.91;5081856;27;51361;-45
2022/10/15 12:54:33;;;;;;;;;14.50;12.50;;;;;35.61;100.00;101135.63;5092331;27;51104;-45